Airfield :
LOGIN :

Register | Disclaimer

   EN    FR    IT 

 










Legend :    VFR   Marginal VFR   IFR   Intensive IFR   Very Intensive IFR
Visi :
Ceiling :
>= 8 km
>= 3000ft
5 to 8 km
1000 to 3000 ft
1500m to 5 km
500 to 1000 ft
800 to 1500m
200 to 500 ft
< 800m
< 200 ft
Symbols :   Thunderstorms  Fog  Heavy snow  Heavy precipitations  Wind > 20 kt
SIGMETs :     Misc.  Thunderstorms  Icing  Turbulence  Mountain Waves  Volcanic Ashes






- Airport Elevation : 277 ft
- IATA code : JER


EGJJ - Jersey

CURRENT METAR :
  • 202120Z AUTO 29016KT 9999 FEW048/// 07/01 Q1025

EXPIRED METARs :
  • 202050Z 29014KT 9999 FEW040 07/01 Q1025
  • 202020Z 30015KT 9999 FEW040 07/00 Q1024
  • 201950Z 30015KT 9999 FEW042 08/01 Q1024
  • 201920Z 29019KT 9999 SCT034 08/01 Q1023
  • 201850Z 29018KT 9999 SCT035 07/01 Q1023

TAF TAF EGJJ
Valid from the 20 at 21:00 until the 21 at 06:00 UTC


201955Z 2021/2106 29015KT 9999 FEW025
PROB30
TEMPO 2021/2100 29018G28KT
BECMG 2103/2105 23013KT
ATIS : +44 1534 498 073



MET'MAP, your aeronautical weather chart ! - Copyright ORBIFLY December 2007 - Disclaimer

ORBIFLY MET'MAP TEAM :

Programming & Development : Alexandra Zaïnal
Concept & original design : Baudouin d'Aumeries
Assistance for programming : Marc-Olivier Méhu
Technical & hardware support : Manuel Goepfert

Contact : metmap@orbifly.com




SOURCES & CREDITS :

   NOAA